KSKX

Taos Regional Airport

Taos, New Mexico, USA
METAR KSKX 211956Z AUTO 25017KT 8SM -SN FEW014 OVC065 M02/M07 A2974 RMK AO2 PK WND 26026/1946 SLP085 P0000 T10221072 FZRANO $
Observed Flight Rules
Jan-21 @ 19:56 UTC (28 minutes ago) Visual Flight Rules
Wind Visibility Clouds Conditions
250° at 17 knots 8 miles
  • Few at 1,400' AGL
  • Overcast at 6,500' AGL
  • Light Snow
Temperatures Readings Precipitation
Current -2°C / 28°F
Dewpoint -7°C / 19°F
Humidity 69%
Altimeter 29.74" Hg
Pressure 1008.5 hPa
Elevation 2161
Current Rain 0.005
METAR KSKX 211956Z AUTO 25017KT 8SM -SN FEW014 OVC065 M02/M07 A2974 RMK AO2 PK WND 26026/1946 SLP085 P0000 T10221072 FZRANO $
Observed Flight Rules
Jan-21 @ 19:56 UTC
(28 minutes ago)
VFR
Wind Visibility
250° at 17 knots 8 miles
Clouds
  • Few at 1,400' AGL
  • Overcast at 6,500' AGL
Conditions
  • Light Snow
Temperature Dewpoint
-2°C / 28°F -7°C / 19°F
Humidity Altimeter Pressure
69% 29.74" Hg 1008.5 hPa
Current Rain
0.005